sensor_id;sensor_type;location;lat;lon;timestamp;P1;durP1;ratioP1;P2;durP2;ratioP2
11439;SDS011;5776;51.814;4.510;2023-07-16T00:00:56;9.60;;;2.15;;
11439;SDS011;5776;51.814;4.510;2023-07-16T00:03:23;7.97;;;2.00;;
11439;SDS011;5776;51.814;4.510;2023-07-16T00:05:49;6.22;;;1.67;;
11439;SDS011;5776;51.814;4.510;2023-07-16T00:08:18;5.47;;;1.90;;
11439;SDS011;5776;51.814;4.510;2023-07-16T00:10:43;7.95;;;1.98;;
11439;SDS011;5776;51.814;4.510;2023-07-16T00:13:09;6.28;;;2.03;;
11439;SDS011;5776;51.814;4.510;2023-07-16T00:15:35;4.28;;;1.50;;
11439;SDS011;5776;51.814;4.510;2023-07-16T00:18:01;5.28;;;1.67;;
11439;SDS011;5776;51.814;4.510;2023-07-16T00:20:27;6.18;;;1.65;;
11439;SDS011;5776;51.814;4.510;2023-07-16T00:22:53;5.53;;;1.90;;
11439;SDS011;5776;51.814;4.510;2023-07-16T00:25:19;5.97;;;1.35;;
11439;SDS011;5776;51.814;4.510;2023-07-16T00:27:46;10.13;;;2.00;;
11439;SDS011;5776;51.814;4.510;2023-07-16T00:30:12;7.93;;;1.67;;
11439;SDS011;5776;51.814;4.510;2023-07-16T00:32:38;5.43;;;1.70;;
11439;SDS011;5776;51.814;4.510;2023-07-16T00:35:04;7.20;;;2.53;;
11439;SDS011;5776;51.814;4.510;2023-07-16T00:37:31;5.10;;;1.70;;
11439;SDS011;5776;51.814;4.510;2023-07-16T00:39:58;4.05;;;2.35;;
11439;SDS011;5776;51.814;4.510;2023-07-16T00:42:24;6.43;;;1.92;;
11439;SDS011;5776;51.814;4.510;2023-07-16T00:44:49;4.18;;;2.00;;
11439;SDS011;5776;51.814;4.510;2023-07-16T00:47:15;4.30;;;1.85;;
11439;SDS011;5776;51.814;4.510;2023-07-16T00:49:41;6.53;;;2.10;;
11439;SDS011;5776;51.814;4.510;2023-07-16T00:52:10;5.72;;;1.95;;
11439;SDS011;5776;51.814;4.510;2023-07-16T00:54:40;5.78;;;2.00;;
11439;SDS011;5776;51.814;4.510;2023-07-16T00:57:07;8.48;;;2.25;;
11439;SDS011;5776;51.814;4.510;2023-07-16T00:59:33;11.07;;;2.40;;
11439;SDS011;5776;51.814;4.510;2023-07-16T01:01:59;8.95;;;2.38;;
11439;SDS011;5776;51.814;4.510;2023-07-16T01:04:25;4.82;;;2.33;;
11439;SDS011;5776;51.814;4.510;2023-07-16T01:06:52;7.50;;;2.85;;
11439;SDS011;5776;51.814;4.510;2023-07-16T01:09:21;8.40;;;2.63;;
11439;SDS011;5776;51.814;4.510;2023-07-16T01:11:48;5.80;;;2.60;;
11439;SDS011;5776;51.814;4.510;2023-07-16T01:14:18;8.95;;;2.80;;
11439;SDS011;5776;51.814;4.510;2023-07-16T01:16:44;6.95;;;2.38;;
11439;SDS011;5776;51.814;4.510;2023-07-16T01:19:10;8.38;;;2.47;;
11439;SDS011;5776;51.814;4.510;2023-07-16T01:21:59;6.28;;;2.70;;
11439;SDS011;5776;51.814;4.510;2023-07-16T01:24:53;6.25;;;2.40;;
11439;SDS011;5776;51.814;4.510;2023-07-16T01:30:37;8.43;;;3.45;;
11439;SDS011;5776;51.814;4.510;2023-07-16T01:33:06;9.75;;;2.45;;
11439;SDS011;5776;51.814;4.510;2023-07-16T01:35:33;9.35;;;2.83;;
11439;SDS011;5776;51.814;4.510;2023-07-16T01:38:00;11.15;;;2.95;;
11439;SDS011;5776;51.814;4.510;2023-07-16T01:40:26;9.70;;;2.85;;
11439;SDS011;5776;51.814;4.510;2023-07-16T01:42:52;5.90;;;2.90;;
11439;SDS011;5776;51.814;4.510;2023-07-16T01:45:18;10.07;;;3.00;;
11439;SDS011;5776;51.814;4.510;2023-07-16T01:48:03;7.50;;;2.63;;
11439;SDS011;5776;51.814;4.510;2023-07-16T01:50:39;5.88;;;2.80;;
11439;SDS011;5776;51.814;4.510;2023-07-16T01:53:06;9.82;;;2.83;;
11439;SDS011;5776;51.814;4.510;2023-07-16T01:55:32;8.02;;;2.85;;
11439;SDS011;5776;51.814;4.510;2023-07-16T01:57:58;6.43;;;2.63;;
11439;SDS011;5776;51.814;4.510;2023-07-16T02:00:24;8.85;;;3.33;;
11439;SDS011;5776;51.814;4.510;2023-07-16T02:02:49;6.47;;;2.60;;
11439;SDS011;5776;51.814;4.510;2023-07-16T02:05:15;9.95;;;3.10;;
11439;SDS011;5776;51.814;4.510;2023-07-16T02:07:42;7.97;;;2.72;;
11439;SDS011;5776;51.814;4.510;2023-07-16T02:10:07;7.53;;;2.33;;
11439;SDS011;5776;51.814;4.510;2023-07-16T02:12:33;11.40;;;3.35;;
11439;SDS011;5776;51.814;4.510;2023-07-16T02:14:59;10.77;;;2.83;;
11439;SDS011;5776;51.814;4.510;2023-07-16T02:17:25;9.20;;;2.70;;
11439;SDS011;5776;51.814;4.510;2023-07-16T02:19:51;9.07;;;3.05;;
11439;SDS011;5776;51.814;4.510;2023-07-16T02:22:18;11.25;;;2.72;;
11439;SDS011;5776;51.814;4.510;2023-07-16T02:24:44;7.78;;;2.50;;
11439;SDS011;5776;51.814;4.510;2023-07-16T02:27:10;5.20;;;2.55;;
11439;SDS011;5776;51.814;4.510;2023-07-16T02:29:36;6.43;;;2.67;;
11439;SDS011;5776;51.814;4.510;2023-07-16T02:32:02;6.63;;;2.63;;
11439;SDS011;5776;51.814;4.510;2023-07-16T02:34:28;11.75;;;2.33;;
11439;SDS011;5776;51.814;4.510;2023-07-16T02:36:54;8.38;;;2.28;;
11439;SDS011;5776;51.814;4.510;2023-07-16T02:39:20;5.03;;;2.28;;
11439;SDS011;5776;51.814;4.510;2023-07-16T02:41:46;5.57;;;2.05;;
11439;SDS011;5776;51.814;4.510;2023-07-16T02:44:12;7.15;;;2.35;;
11439;SDS011;5776;51.814;4.510;2023-07-16T02:46:37;10.35;;;2.58;;
11439;SDS011;5776;51.814;4.510;2023-07-16T02:49:03;10.73;;;2.90;;
11439;SDS011;5776;51.814;4.510;2023-07-16T02:51:30;5.50;;;2.60;;
11439;SDS011;5776;51.814;4.510;2023-07-16T02:53:56;5.93;;;2.17;;
11439;SDS011;5776;51.814;4.510;2023-07-16T02:56:23;6.60;;;2.28;;
11439;SDS011;5776;51.814;4.510;2023-07-16T02:58:48;6.47;;;2.50;;
11439;SDS011;5776;51.814;4.510;2023-07-16T03:01:14;5.10;;;2.33;;
11439;SDS011;5776;51.814;4.510;2023-07-16T03:03:40;9.38;;;2.88;;
11439;SDS011;5776;51.814;4.510;2023-07-16T03:06:06;6.00;;;2.55;;
11439;SDS011;5776;51.814;4.510;2023-07-16T03:08:33;5.95;;;3.10;;
11439;SDS011;5776;51.814;4.510;2023-07-16T03:11:00;9.20;;;3.05;;
11439;SDS011;5776;51.814;4.510;2023-07-16T03:13:26;8.40;;;3.10;;
11439;SDS011;5776;51.814;4.510;2023-07-16T03:15:51;7.22;;;3.38;;
11439;SDS011;5776;51.814;4.510;2023-07-16T03:18:18;9.10;;;3.78;;
11439;SDS011;5776;51.814;4.510;2023-07-16T03:20:44;11.07;;;3.85;;
11439;SDS011;5776;51.814;4.510;2023-07-16T03:23:10;9.43;;;3.20;;
11439;SDS011;5776;51.814;4.510;2023-07-16T03:25:36;9.30;;;3.65;;
11439;SDS011;5776;51.814;4.510;2023-07-16T03:28:02;8.82;;;3.45;;
11439;SDS011;5776;51.814;4.510;2023-07-16T03:30:30;7.05;;;2.85;;
11439;SDS011;5776;51.814;4.510;2023-07-16T03:32:56;7.28;;;3.17;;
11439;SDS011;5776;51.814;4.510;2023-07-16T03:35:22;5.43;;;2.92;;
11439;SDS011;5776;51.814;4.510;2023-07-16T03:37:48;6.13;;;3.03;;
11439;SDS011;5776;51.814;4.510;2023-07-16T03:40:15;7.35;;;3.28;;
11439;SDS011;5776;51.814;4.510;2023-07-16T03:42:42;13.20;;;3.50;;
11439;SDS011;5776;51.814;4.510;2023-07-16T03:45:09;7.55;;;2.65;;
11439;SDS011;5776;51.814;4.510;2023-07-16T03:47:35;6.20;;;3.00;;
11439;SDS011;5776;51.814;4.510;2023-07-16T03:50:01;9.90;;;3.40;;
11439;SDS011;5776;51.814;4.510;2023-07-16T03:52:28;8.30;;;3.63;;
11439;SDS011;5776;51.814;4.510;2023-07-16T03:54:54;5.80;;;3.15;;
11439;SDS011;5776;51.814;4.510;2023-07-16T03:57:20;9.32;;;3.05;;
11439;SDS011;5776;51.814;4.510;2023-07-16T03:59:46;8.93;;;3.78;;
11439;SDS011;5776;51.814;4.510;2023-07-16T04:02:13;6.03;;;3.47;;
11439;SDS011;5776;51.814;4.510;2023-07-16T04:04:39;9.77;;;3.20;;
11439;SDS011;5776;51.814;4.510;2023-07-16T04:07:05;7.40;;;3.53;;
11439;SDS011;5776;51.814;4.510;2023-07-16T04:09:32;9.20;;;3.67;;
11439;SDS011;5776;51.814;4.510;2023-07-16T04:11:58;8.25;;;3.28;;
11439;SDS011;5776;51.814;4.510;2023-07-16T04:14:24;9.82;;;3.80;;
11439;SDS011;5776;51.814;4.510;2023-07-16T04:16:50;7.00;;;3.40;;
11439;SDS011;5776;51.814;4.510;2023-07-16T04:19:16;10.23;;;3.55;;
11439;SDS011;5776;51.814;4.510;2023-07-16T04:21:42;8.27;;;3.42;;
11439;SDS011;5776;51.814;4.510;2023-07-16T04:24:08;7.22;;;3.20;;
11439;SDS011;5776;51.814;4.510;2023-07-16T04:26:33;6.57;;;3.22;;
11439;SDS011;5776;51.814;4.510;2023-07-16T04:28:59;7.18;;;3.30;;
11439;SDS011;5776;51.814;4.510;2023-07-16T04:31:25;7.60;;;3.10;;
11439;SDS011;5776;51.814;4.510;2023-07-16T04:33:51;5.50;;;3.03;;
11439;SDS011;5776;51.814;4.510;2023-07-16T04:36:17;5.78;;;2.88;;
11439;SDS011;5776;51.814;4.510;2023-07-16T04:38:43;7.28;;;2.90;;
11439;SDS011;5776;51.814;4.510;2023-07-16T04:41:09;7.05;;;3.17;;
11439;SDS011;5776;51.814;4.510;2023-07-16T04:43:35;6.47;;;2.95;;
11439;SDS011;5776;51.814;4.510;2023-07-16T04:46:01;7.15;;;3.08;;
11439;SDS011;5776;51.814;4.510;2023-07-16T04:48:26;8.80;;;3.13;;
11439;SDS011;5776;51.814;4.510;2023-07-16T04:50:53;6.15;;;3.58;;
11439;SDS011;5776;51.814;4.510;2023-07-16T04:53:19;11.32;;;3.72;;
11439;SDS011;5776;51.814;4.510;2023-07-16T04:55:44;11.35;;;4.00;;
11439;SDS011;5776;51.814;4.510;2023-07-16T04:58:11;9.48;;;3.25;;
11439;SDS011;5776;51.814;4.510;2023-07-16T05:00:37;9.00;;;3.72;;
11439;SDS011;5776;51.814;4.510;2023-07-16T05:03:03;7.40;;;3.25;;
11439;SDS011;5776;51.814;4.510;2023-07-16T05:05:29;6.38;;;2.97;;
11439;SDS011;5776;51.814;4.510;2023-07-16T05:07:55;8.70;;;3.47;;
11439;SDS011;5776;51.814;4.510;2023-07-16T05:10:20;6.82;;;3.35;;
11439;SDS011;5776;51.814;4.510;2023-07-16T05:12:46;7.15;;;3.30;;
11439;SDS011;5776;51.814;4.510;2023-07-16T05:15:12;8.77;;;3.55;;
11439;SDS011;5776;51.814;4.510;2023-07-16T05:17:38;8.95;;;3.42;;
11439;SDS011;5776;51.814;4.510;2023-07-16T05:20:05;9.68;;;3.70;;
11439;SDS011;5776;51.814;4.510;2023-07-16T05:22:32;6.57;;;3.67;;
11439;SDS011;5776;51.814;4.510;2023-07-16T05:24:58;8.00;;;3.42;;
11439;SDS011;5776;51.814;4.510;2023-07-16T05:27:24;8.43;;;3.60;;
11439;SDS011;5776;51.814;4.510;2023-07-16T05:29:50;8.68;;;3.70;;
11439;SDS011;5776;51.814;4.510;2023-07-16T05:32:16;14.10;;;3.85;;
11439;SDS011;5776;51.814;4.510;2023-07-16T05:34:42;6.63;;;3.50;;
11439;SDS011;5776;51.814;4.510;2023-07-16T05:37:08;10.38;;;4.03;;
11439;SDS011;5776;51.814;4.510;2023-07-16T05:39:34;9.20;;;3.80;;
11439;SDS011;5776;51.814;4.510;2023-07-16T05:42:00;6.10;;;3.03;;
11439;SDS011;5776;51.814;4.510;2023-07-16T05:44:29;7.22;;;3.60;;
11439;SDS011;5776;51.814;4.510;2023-07-16T05:46:54;7.45;;;3.85;;
11439;SDS011;5776;51.814;4.510;2023-07-16T05:49:20;11.63;;;3.90;;
11439;SDS011;5776;51.814;4.510;2023-07-16T05:51:46;10.18;;;4.28;;
11439;SDS011;5776;51.814;4.510;2023-07-16T05:54:12;9.60;;;4.28;;
11439;SDS011;5776;51.814;4.510;2023-07-16T05:56:37;12.43;;;3.72;;
11439;SDS011;5776;51.814;4.510;2023-07-16T05:59:02;11.20;;;4.07;;
11439;SDS011;5776;51.814;4.510;2023-07-16T06:01:28;9.48;;;3.75;;
11439;SDS011;5776;51.814;4.510;2023-07-16T06:03:53;10.90;;;4.25;;
11439;SDS011;5776;51.814;4.510;2023-07-16T06:06:19;9.65;;;3.97;;
11439;SDS011;5776;51.814;4.510;2023-07-16T06:08:45;10.95;;;4.07;;
11439;SDS011;5776;51.814;4.510;2023-07-16T06:11:11;7.22;;;3.67;;
11439;SDS011;5776;51.814;4.510;2023-07-16T06:13:37;5.55;;;3.33;;
11439;SDS011;5776;51.814;4.510;2023-07-16T06:16:03;13.25;;;4.00;;
11439;SDS011;5776;51.814;4.510;2023-07-16T06:18:29;7.75;;;4.40;;
11439;SDS011;5776;51.814;4.510;2023-07-16T06:20:54;8.15;;;4.25;;
11439;SDS011;5776;51.814;4.510;2023-07-16T06:23:20;8.00;;;3.67;;
11439;SDS011;5776;51.814;4.510;2023-07-16T06:25:46;8.60;;;3.63;;
11439;SDS011;5776;51.814;4.510;2023-07-16T06:28:15;11.27;;;3.67;;
11439;SDS011;5776;51.814;4.510;2023-07-16T06:30:40;10.27;;;4.05;;
11439;SDS011;5776;51.814;4.510;2023-07-16T06:33:06;8.80;;;3.90;;
11439;SDS011;5776;51.814;4.510;2023-07-16T06:35:32;6.50;;;3.58;;
11439;SDS011;5776;51.814;4.510;2023-07-16T06:37:57;8.93;;;4.60;;
11439;SDS011;5776;51.814;4.510;2023-07-16T06:40:23;12.30;;;4.78;;
11439;SDS011;5776;51.814;4.510;2023-07-16T06:42:50;7.70;;;4.30;;
11439;SDS011;5776;51.814;4.510;2023-07-16T06:45:16;8.65;;;4.07;;
11439;SDS011;5776;51.814;4.510;2023-07-16T06:47:42;11.02;;;4.05;;
11439;SDS011;5776;51.814;4.510;2023-07-16T06:50:09;9.65;;;4.75;;
11439;SDS011;5776;51.814;4.510;2023-07-16T06:52:35;10.43;;;4.43;;
11439;SDS011;5776;51.814;4.510;2023-07-16T06:55:00;11.23;;;4.68;;
11439;SDS011;5776;51.814;4.510;2023-07-16T06:57:26;11.25;;;4.80;;
11439;SDS011;5776;51.814;4.510;2023-07-16T06:59:52;12.00;;;4.13;;
11439;SDS011;5776;51.814;4.510;2023-07-16T07:02:18;10.63;;;4.55;;
11439;SDS011;5776;51.814;4.510;2023-07-16T07:04:44;9.30;;;4.82;;
11439;SDS011;5776;51.814;4.510;2023-07-16T07:07:09;8.73;;;4.50;;
11439;SDS011;5776;51.814;4.510;2023-07-16T07:09:34;11.75;;;4.60;;
11439;SDS011;5776;51.814;4.510;2023-07-16T07:12:00;9.48;;;4.22;;
11439;SDS011;5776;51.814;4.510;2023-07-16T07:14:26;8.00;;;4.45;;
11439;SDS011;5776;51.814;4.510;2023-07-16T07:16:51;10.25;;;4.75;;
11439;SDS011;5776;51.814;4.510;2023-07-16T07:19:16;9.98;;;4.50;;
11439;SDS011;5776;51.814;4.510;2023-07-16T07:21:43;12.45;;;4.30;;
11439;SDS011;5776;51.814;4.510;2023-07-16T07:24:10;11.45;;;4.82;;
11439;SDS011;5776;51.814;4.510;2023-07-16T07:26:36;9.38;;;4.85;;
11439;SDS011;5776;51.814;4.510;2023-07-16T07:29:02;12.23;;;4.65;;
11439;SDS011;5776;51.814;4.510;2023-07-16T07:31:28;11.40;;;4.63;;
11439;SDS011;5776;51.814;4.510;2023-07-16T07:33:53;9.88;;;4.35;;
11439;SDS011;5776;51.814;4.510;2023-07-16T07:36:19;12.85;;;4.97;;
11439;SDS011;5776;51.814;4.510;2023-07-16T07:38:48;13.15;;;4.47;;
11439;SDS011;5776;51.814;4.510;2023-07-16T07:41:14;8.15;;;4.00;;
11439;SDS011;5776;51.814;4.510;2023-07-16T07:43:40;10.23;;;5.05;;
11439;SDS011;5776;51.814;4.510;2023-07-16T07:46:06;11.25;;;4.55;;
11439;SDS011;5776;51.814;4.510;2023-07-16T07:48:33;12.68;;;4.90;;
11439;SDS011;5776;51.814;4.510;2023-07-16T07:50:59;10.38;;;4.50;;
11439;SDS011;5776;51.814;4.510;2023-07-16T07:53:24;10.55;;;5.03;;
11439;SDS011;5776;51.814;4.510;2023-07-16T07:55:51;11.38;;;4.45;;
11439;SDS011;5776;51.814;4.510;2023-07-16T07:58:17;11.43;;;4.82;;
11439;SDS011;5776;51.814;4.510;2023-07-16T08:00:43;9.57;;;4.90;;
11439;SDS011;5776;51.814;4.510;2023-07-16T08:03:11;13.00;;;4.75;;
11439;SDS011;5776;51.814;4.510;2023-07-16T08:05:37;10.85;;;4.72;;
11439;SDS011;5776;51.814;4.510;2023-07-16T08:08:04;9.75;;;4.72;;
11439;SDS011;5776;51.814;4.510;2023-07-16T08:10:30;11.95;;;5.15;;
11439;SDS011;5776;51.814;4.510;2023-07-16T08:12:56;13.57;;;5.05;;
11439;SDS011;5776;51.814;4.510;2023-07-16T08:15:22;15.80;;;4.78;;
11439;SDS011;5776;51.814;4.510;2023-07-16T08:17:48;7.45;;;4.20;;
11439;SDS011;5776;51.814;4.510;2023-07-16T08:20:14;13.88;;;5.28;;
11439;SDS011;5776;51.814;4.510;2023-07-16T08:22:40;10.73;;;4.07;;
11439;SDS011;5776;51.814;4.510;2023-07-16T08:25:06;11.90;;;4.68;;
11439;SDS011;5776;51.814;4.510;2023-07-16T08:27:33;8.98;;;4.15;;
11439;SDS011;5776;51.814;4.510;2023-07-16T08:30:00;11.23;;;4.18;;
11439;SDS011;5776;51.814;4.510;2023-07-16T08:32:26;8.05;;;3.40;;
11439;SDS011;5776;51.814;4.510;2023-07-16T08:34:52;8.20;;;4.22;;
11439;SDS011;5776;51.814;4.510;2023-07-16T08:37:19;9.82;;;4.78;;
11439;SDS011;5776;51.814;4.510;2023-07-16T08:39:45;10.95;;;4.30;;
11439;SDS011;5776;51.814;4.510;2023-07-16T08:42:10;12.43;;;4.45;;
11439;SDS011;5776;51.814;4.510;2023-07-16T08:44:39;8.55;;;3.75;;
11439;SDS011;5776;51.814;4.510;2023-07-16T08:47:05;11.68;;;4.07;;
11439;SDS011;5776;51.814;4.510;2023-07-16T08:49:32;9.88;;;4.50;;
11439;SDS011;5776;51.814;4.510;2023-07-16T08:51:59;10.38;;;4.30;;
11439;SDS011;5776;51.814;4.510;2023-07-16T08:54:27;10.60;;;3.65;;
11439;SDS011;5776;51.814;4.510;2023-07-16T08:56:52;7.78;;;3.80;;
11439;SDS011;5776;51.814;4.510;2023-07-16T08:59:18;10.65;;;4.63;;
11439;SDS011;5776;51.814;4.510;2023-07-16T09:01:44;6.43;;;4.10;;
11439;SDS011;5776;51.814;4.510;2023-07-16T09:04:12;7.28;;;3.20;;
11439;SDS011;5776;51.814;4.510;2023-07-16T09:06:39;12.18;;;3.88;;
11439;SDS011;5776;51.814;4.510;2023-07-16T09:09:04;10.60;;;4.22;;
11439;SDS011;5776;51.814;4.510;2023-07-16T09:11:33;8.43;;;3.90;;
11439;SDS011;5776;51.814;4.510;2023-07-16T09:14:01;9.07;;;3.78;;
11439;SDS011;5776;51.814;4.510;2023-07-16T09:16:31;6.40;;;3.60;;
11439;SDS011;5776;51.814;4.510;2023-07-16T09:19:05;9.98;;;3.55;;
11439;SDS011;5776;51.814;4.510;2023-07-16T09:21:32;12.15;;;4.25;;
11439;SDS011;5776;51.814;4.510;2023-07-16T09:24:05;13.18;;;4.40;;
11439;SDS011;5776;51.814;4.510;2023-07-16T09:26:32;9.18;;;4.03;;
11439;SDS011;5776;51.814;4.510;2023-07-16T09:28:58;7.93;;;4.25;;
11439;SDS011;5776;51.814;4.510;2023-07-16T09:31:24;9.48;;;4.10;;
11439;SDS011;5776;51.814;4.510;2023-07-16T09:33:51;9.60;;;3.72;;
11439;SDS011;5776;51.814;4.510;2023-07-16T09:36:24;9.73;;;3.80;;
11439;SDS011;5776;51.814;4.510;2023-07-16T09:38:55;8.80;;;4.50;;
11439;SDS011;5776;51.814;4.510;2023-07-16T09:41:22;9.15;;;3.20;;
11439;SDS011;5776;51.814;4.510;2023-07-16T09:43:49;9.90;;;4.18;;
11439;SDS011;5776;51.814;4.510;2023-07-16T09:46:18;8.30;;;3.72;;
11439;SDS011;5776;51.814;4.510;2023-07-16T09:48:44;7.65;;;3.97;;
11439;SDS011;5776;51.814;4.510;2023-07-16T09:51:11;6.20;;;3.25;;
11439;SDS011;5776;51.814;4.510;2023-07-16T09:53:39;7.95;;;3.53;;
11439;SDS011;5776;51.814;4.510;2023-07-16T09:56:08;11.98;;;3.60;;
11439;SDS011;5776;51.814;4.510;2023-07-16T09:58:37;10.60;;;3.92;;
11439;SDS011;5776;51.814;4.510;2023-07-16T10:01:05;8.13;;;3.70;;
11439;SDS011;5776;51.814;4.510;2023-07-16T10:03:31;7.65;;;3.08;;
11439;SDS011;5776;51.814;4.510;2023-07-16T10:06:06;7.32;;;3.00;;
11439;SDS011;5776;51.814;4.510;2023-07-16T10:08:33;5.10;;;3.03;;
11439;SDS011;5776;51.814;4.510;2023-07-16T10:11:00;7.38;;;2.60;;
11439;SDS011;5776;51.814;4.510;2023-07-16T10:13:26;5.72;;;2.80;;
11439;SDS011;5776;51.814;4.510;2023-07-16T10:18:29;4.15;;;2.38;;
11439;SDS011;5776;51.814;4.510;2023-07-16T10:21:08;9.23;;;3.03;;
11439;SDS011;5776;51.814;4.510;2023-07-16T10:23:41;6.38;;;2.67;;
11439;SDS011;5776;51.814;4.510;2023-07-16T10:26:09;5.20;;;2.72;;
11439;SDS011;5776;51.814;4.510;2023-07-16T10:28:37;8.40;;;2.83;;
11439;SDS011;5776;51.814;4.510;2023-07-16T10:31:03;6.28;;;2.65;;
11439;SDS011;5776;51.814;4.510;2023-07-16T10:33:29;8.45;;;2.33;;
11439;SDS011;5776;51.814;4.510;2023-07-16T10:35:56;6.18;;;2.45;;
11439;SDS011;5776;51.814;4.510;2023-07-16T10:38:24;4.38;;;1.80;;
11439;SDS011;5776;51.814;4.510;2023-07-16T10:40:50;4.60;;;1.70;;
11439;SDS011;5776;51.814;4.510;2023-07-16T10:43:15;3.65;;;1.70;;
11439;SDS011;5776;51.814;4.510;2023-07-16T10:45:41;7.65;;;2.42;;
11439;SDS011;5776;51.814;4.510;2023-07-16T10:48:07;6.70;;;2.55;;
11439;SDS011;5776;51.814;4.510;2023-07-16T10:50:33;8.30;;;2.35;;
11439;SDS011;5776;51.814;4.510;2023-07-16T10:52:59;7.28;;;3.08;;
11439;SDS011;5776;51.814;4.510;2023-07-16T10:55:26;4.88;;;2.90;;
11439;SDS011;5776;51.814;4.510;2023-07-16T10:57:53;10.00;;;3.35;;
11439;SDS011;5776;51.814;4.510;2023-07-16T11:00:19;6.75;;;2.53;;
11439;SDS011;5776;51.814;4.510;2023-07-16T11:02:46;5.43;;;3.20;;
11439;SDS011;5776;51.814;4.510;2023-07-16T11:05:12;6.70;;;3.05;;
11439;SDS011;5776;51.814;4.510;2023-07-16T11:07:45;4.32;;;2.40;;
11439;SDS011;5776;51.814;4.510;2023-07-16T11:10:12;7.72;;;2.90;;
11439;SDS011;5776;51.814;4.510;2023-07-16T11:12:41;6.35;;;2.30;;
11439;SDS011;5776;51.814;4.510;2023-07-16T11:15:07;8.77;;;2.75;;
11439;SDS011;5776;51.814;4.510;2023-07-16T11:17:33;5.38;;;2.42;;
11439;SDS011;5776;51.814;4.510;2023-07-16T11:20:02;5.32;;;2.38;;
11439;SDS011;5776;51.814;4.510;2023-07-16T11:22:29;7.40;;;2.33;;
11439;SDS011;5776;51.814;4.510;2023-07-16T11:24:55;5.00;;;2.22;;
11439;SDS011;5776;51.814;4.510;2023-07-16T11:27:22;8.98;;;2.50;;
11439;SDS011;5776;51.814;4.510;2023-07-16T11:29:52;6.07;;;2.25;;
11439;SDS011;5776;51.814;4.510;2023-07-16T11:32:52;6.65;;;1.98;;
11439;SDS011;5776;51.814;4.510;2023-07-16T11:35:16;4.78;;;1.77;;
11439;SDS011;5776;51.814;4.510;2023-07-16T11:37:43;7.88;;;2.10;;
11439;SDS011;5776;51.814;4.510;2023-07-16T11:40:11;4.82;;;1.77;;
11439;SDS011;5776;51.814;4.510;2023-07-16T11:42:42;7.38;;;2.20;;
11439;SDS011;5776;51.814;4.510;2023-07-16T11:45:18;6.15;;;2.20;;
11439;SDS011;5776;51.814;4.510;2023-07-16T11:47:47;5.32;;;1.95;;
11439;SDS011;5776;51.814;4.510;2023-07-16T11:50:13;4.00;;;1.52;;
11439;SDS011;5776;51.814;4.510;2023-07-16T11:52:39;6.60;;;2.10;;
11439;SDS011;5776;51.814;4.510;2023-07-16T11:55:05;3.63;;;1.30;;
11439;SDS011;5776;51.814;4.510;2023-07-16T11:57:32;9.25;;;2.13;;
11439;SDS011;5776;51.814;4.510;2023-07-16T11:59:59;7.10;;;1.55;;
11439;SDS011;5776;51.814;4.510;2023-07-16T12:02:25;5.20;;;1.40;;
11439;SDS011;5776;51.814;4.510;2023-07-16T12:04:52;3.42;;;1.48;;
11439;SDS011;5776;51.814;4.510;2023-07-16T12:07:30;4.15;;;1.42;;
11439;SDS011;5776;51.814;4.510;2023-07-16T12:10:04;4.38;;;1.33;;
11439;SDS011;5776;51.814;4.510;2023-07-16T12:12:31;4.00;;;1.30;;
11439;SDS011;5776;51.814;4.510;2023-07-16T12:15:01;4.70;;;1.30;;
11439;SDS011;5776;51.814;4.510;2023-07-16T12:17:27;6.20;;;1.00;;
11439;SDS011;5776;51.814;4.510;2023-07-16T12:19:53;2.13;;;0.80;;
11439;SDS011;5776;51.814;4.510;2023-07-16T12:22:20;9.32;;;1.30;;
11439;SDS011;5776;51.814;4.510;2023-07-16T12:24:47;7.25;;;1.40;;
11439;SDS011;5776;51.814;4.510;2023-07-16T12:27:17;9.35;;;1.60;;
11439;SDS011;5776;51.814;4.510;2023-07-16T12:29:43;5.22;;;1.30;;
11439;SDS011;5776;51.814;4.510;2023-07-16T12:32:09;3.63;;;1.17;;
11439;SDS011;5776;51.814;4.510;2023-07-16T12:34:35;3.53;;;1.10;;
11439;SDS011;5776;51.814;4.510;2023-07-16T12:37:02;2.33;;;0.93;;
11439;SDS011;5776;51.814;4.510;2023-07-16T12:39:28;4.20;;;1.00;;
11439;SDS011;5776;51.814;4.510;2023-07-16T12:41:54;3.90;;;1.23;;
11439;SDS011;5776;51.814;4.510;2023-07-16T12:44:20;4.07;;;1.20;;
11439;SDS011;5776;51.814;4.510;2023-07-16T12:46:46;7.90;;;1.70;;
11439;SDS011;5776;51.814;4.510;2023-07-16T12:49:14;4.00;;;1.20;;
11439;SDS011;5776;51.814;4.510;2023-07-16T12:51:40;4.93;;;0.90;;
11439;SDS011;5776;51.814;4.510;2023-07-16T12:54:06;3.35;;;1.13;;
11439;SDS011;5776;51.814;4.510;2023-07-16T12:56:32;7.15;;;1.20;;
11439;SDS011;5776;51.814;4.510;2023-07-16T12:58:59;2.88;;;0.90;;
11439;SDS011;5776;51.814;4.510;2023-07-16T13:01:25;5.20;;;1.10;;
11439;SDS011;5776;51.814;4.510;2023-07-16T13:03:50;3.53;;;0.70;;
11439;SDS011;5776;51.814;4.510;2023-07-16T13:06:17;2.97;;;1.00;;
11439;SDS011;5776;51.814;4.510;2023-07-16T13:08:43;6.07;;;1.30;;
11439;SDS011;5776;51.814;4.510;2023-07-16T13:11:08;5.53;;;1.00;;
11439;SDS011;5776;51.814;4.510;2023-07-16T13:13:34;3.58;;;1.02;;
11439;SDS011;5776;51.814;4.510;2023-07-16T13:16:01;6.45;;;1.00;;
11439;SDS011;5776;51.814;4.510;2023-07-16T13:18:26;3.08;;;1.83;;
11439;SDS011;5776;51.814;4.510;2023-07-16T13:20:54;3.53;;;1.05;;
11439;SDS011;5776;51.814;4.510;2023-07-16T13:23:20;4.85;;;0.82;;
11439;SDS011;5776;51.814;4.510;2023-07-16T13:25:47;2.67;;;0.90;;
11439;SDS011;5776;51.814;4.510;2023-07-16T13:28:17;7.95;;;1.15;;
11439;SDS011;5776;51.814;4.510;2023-07-16T13:30:42;5.25;;;1.30;;
11439;SDS011;5776;51.814;4.510;2023-07-16T13:33:08;6.22;;;1.25;;
11439;SDS011;5776;51.814;4.510;2023-07-16T13:35:34;4.80;;;1.10;;
11439;SDS011;5776;51.814;4.510;2023-07-16T13:38:00;3.40;;;0.98;;
11439;SDS011;5776;51.814;4.510;2023-07-16T13:40:26;7.85;;;1.30;;
11439;SDS011;5776;51.814;4.510;2023-07-16T13:42:52;3.30;;;1.08;;
11439;SDS011;5776;51.814;4.510;2023-07-16T13:45:20;5.03;;;1.10;;
11439;SDS011;5776;51.814;4.510;2023-07-16T13:47:46;5.07;;;1.23;;
11439;SDS011;5776;51.814;4.510;2023-07-16T13:50:12;6.38;;;1.23;;
11439;SDS011;5776;51.814;4.510;2023-07-16T13:52:39;4.53;;;1.10;;
11439;SDS011;5776;51.814;4.510;2023-07-16T13:55:05;1.88;;;0.93;;
11439;SDS011;5776;51.814;4.510;2023-07-16T13:57:31;3.53;;;0.88;;
11439;SDS011;5776;51.814;4.510;2023-07-16T13:59:57;5.10;;;1.02;;
11439;SDS011;5776;51.814;4.510;2023-07-16T14:02:23;8.90;;;1.45;;
11439;SDS011;5776;51.814;4.510;2023-07-16T14:04:49;5.90;;;1.58;;
11439;SDS011;5776;51.814;4.510;2023-07-16T14:07:16;5.53;;;1.02;;
11439;SDS011;5776;51.814;4.510;2023-07-16T14:09:42;2.92;;;1.15;;
11439;SDS011;5776;51.814;4.510;2023-07-16T14:12:09;5.45;;;1.30;;
11439;SDS011;5776;51.814;4.510;2023-07-16T14:14:35;6.90;;;1.40;;
11439;SDS011;5776;51.814;4.510;2023-07-16T14:17:01;4.93;;;1.42;;
11439;SDS011;5776;51.814;4.510;2023-07-16T14:19:27;4.70;;;1.20;;
11439;SDS011;5776;51.814;4.510;2023-07-16T14:21:53;5.50;;;1.00;;
11439;SDS011;5776;51.814;4.510;2023-07-16T14:24:19;5.28;;;1.30;;
11439;SDS011;5776;51.814;4.510;2023-07-16T14:26:44;5.93;;;1.38;;
11439;SDS011;5776;51.814;4.510;2023-07-16T14:29:11;7.53;;;1.35;;
11439;SDS011;5776;51.814;4.510;2023-07-16T14:31:37;5.18;;;1.30;;
11439;SDS011;5776;51.814;4.510;2023-07-16T14:34:03;4.68;;;1.60;;
11439;SDS011;5776;51.814;4.510;2023-07-16T14:36:29;7.15;;;1.45;;
11439;SDS011;5776;51.814;4.510;2023-07-16T14:38:54;9.27;;;1.48;;
11439;SDS011;5776;51.814;4.510;2023-07-16T14:41:21;8.43;;;1.30;;
11439;SDS011;5776;51.814;4.510;2023-07-16T14:43:47;2.90;;;0.90;;
11439;SDS011;5776;51.814;4.510;2023-07-16T14:46:15;9.35;;;1.67;;
11439;SDS011;5776;51.814;4.510;2023-07-16T14:48:42;3.75;;;0.93;;
11439;SDS011;5776;51.814;4.510;2023-07-16T14:51:12;7.63;;;1.13;;
11439;SDS011;5776;51.814;4.510;2023-07-16T14:53:38;4.28;;;1.13;;
11439;SDS011;5776;51.814;4.510;2023-07-16T14:56:04;7.78;;;1.45;;
11439;SDS011;5776;51.814;4.510;2023-07-16T14:58:32;7.13;;;1.42;;
11439;SDS011;5776;51.814;4.510;2023-07-16T15:00:59;5.93;;;1.40;;